createdAt,value
2023-01-19T00:01:41.909Z,14.88
2023-01-19T00:04:09.521Z,15.57
2023-01-19T00:06:37.004Z,14.82
2023-01-19T00:09:04.746Z,15.73
2023-01-19T00:11:32.193Z,16.02
2023-01-19T00:13:59.759Z,15.65
2023-01-19T00:16:27.369Z,14.68
2023-01-19T00:18:55.600Z,15.93
2023-01-19T00:21:23.277Z,16.08
2023-01-19T00:23:52.655Z,15.02
2023-01-19T00:26:22.147Z,15.98
2023-01-19T00:28:50.980Z,16.60
2023-01-19T00:31:20.736Z,16.52
2023-01-19T00:33:49.385Z,16.23
2023-01-19T00:36:17.008Z,15.32
2023-01-19T00:38:44.584Z,16.73
2023-01-19T00:41:12.027Z,16.30
2023-01-19T00:43:39.426Z,16.13
2023-01-19T00:46:07.055Z,15.93
2023-01-19T00:48:34.691Z,15.48
2023-01-19T00:51:02.208Z,16.10
2023-01-19T00:53:32.408Z,16.55
2023-01-19T00:55:59.926Z,17.27
2023-01-19T00:58:27.370Z,17.30
2023-01-19T01:00:57.415Z,16.88
2023-01-19T01:03:27.994Z,15.30
2023-01-19T01:05:55.759Z,14.80
2023-01-19T01:08:23.300Z,16.38
2023-01-19T01:10:51.883Z,15.82
2023-01-19T01:13:21.093Z,14.85
2023-01-19T01:15:54.192Z,16.83
2023-01-19T01:18:22.182Z,16.27
2023-01-19T01:20:49.786Z,15.50
2023-01-19T01:23:22.645Z,18.10
2023-01-19T01:25:50.102Z,17.52
2023-01-19T01:28:17.551Z,18.08
2023-01-19T01:30:45.068Z,16.90
2023-01-19T01:33:13.311Z,16.85
2023-01-19T01:35:40.802Z,17.77
2023-01-19T01:38:09.436Z,16.30
2023-01-19T01:40:40.472Z,17.33
2023-01-19T01:43:17.589Z,17.05
2023-01-19T01:45:45.273Z,16.42
2023-01-19T01:48:30.820Z,17.48
2023-01-19T01:51:25.093Z,16.60
2023-01-19T01:54:07.143Z,16.58
2023-01-19T01:56:39.117Z,16.83
2023-01-19T01:59:18.043Z,17.05
2023-01-19T02:02:04.063Z,16.85
2023-01-19T02:04:32.193Z,17.55
2023-01-19T02:07:18.331Z,16.63
2023-01-19T02:10:04.569Z,16.60
2023-01-19T02:12:51.699Z,16.50
2023-01-19T02:15:20.621Z,16.65
2023-01-19T02:17:48.458Z,16.38
2023-01-19T02:20:17.475Z,16.45
2023-01-19T02:22:50.012Z,16.80
2023-01-19T02:25:20.130Z,16.17
2023-01-19T02:27:51.491Z,16.35
2023-01-19T02:30:19.741Z,16.48
2023-01-19T02:32:47.368Z,16.02
2023-01-19T02:35:15.452Z,17.25
2023-01-19T02:37:45.465Z,16.60
2023-01-19T02:40:21.717Z,18.02
2023-01-19T02:42:52.916Z,15.85
2023-01-19T02:45:22.970Z,17.15
2023-01-19T02:47:52.909Z,17.40
2023-01-19T02:50:46.071Z,18.45
2023-01-19T02:53:51.275Z,17.27
2023-01-19T02:56:37.236Z,16.27
2023-01-19T02:59:27.330Z,16.90
2023-01-19T03:02:04.669Z,17.90
2023-01-19T03:04:54.571Z,17.25
2023-01-19T03:08:02.952Z,16.88
2023-01-19T03:10:57.893Z,17.35
2023-01-19T03:13:45.602Z,17.50
2023-01-19T03:16:35.263Z,18.73
2023-01-19T03:19:10.219Z,16.85
2023-01-19T03:21:42.805Z,19.10
2023-01-19T03:24:13.918Z,19.95
2023-01-19T03:26:49.198Z,19.50
2023-01-19T03:29:22.088Z,19.02
2023-01-19T03:31:52.485Z,20.00
2023-01-19T03:34:23.980Z,20.08
2023-01-19T03:37:03.040Z,18.73
2023-01-19T03:39:31.538Z,17.88
2023-01-19T03:42:08.610Z,16.27
2023-01-19T03:44:40.301Z,15.10
2023-01-19T03:49:43.232Z,13.52
2023-01-19T03:52:11.436Z,14.32
2023-01-19T03:54:40.923Z,14.30
2023-01-19T03:57:08.510Z,14.32
2023-01-19T03:59:36.462Z,13.57
2023-01-19T04:02:04.046Z,14.35
2023-01-19T04:04:31.679Z,12.38
2023-01-19T04:06:59.272Z,13.48
2023-01-19T04:09:27.263Z,13.70
2023-01-19T04:11:57.175Z,14.07
2023-01-19T04:14:24.751Z,12.68
2023-01-19T04:16:52.326Z,12.82
2023-01-19T04:19:19.777Z,11.63
2023-01-19T04:21:51.025Z,13.15
2023-01-19T04:24:18.542Z,13.18
2023-01-19T04:26:46.024Z,12.85
2023-01-19T04:29:14.387Z,12.43
2023-01-19T04:31:41.907Z,12.25
2023-01-19T04:34:10.179Z,14.05
2023-01-19T04:36:37.663Z,12.82
2023-01-19T04:39:05.291Z,12.80
2023-01-19T04:41:32.843Z,13.07
2023-01-19T04:44:00.559Z,11.48
2023-01-19T04:46:28.243Z,11.75
2023-01-19T04:48:55.828Z,11.52
2023-01-19T04:51:23.397Z,10.38
2023-01-19T04:53:50.882Z,10.05
2023-01-19T04:56:18.578Z,9.35
2023-01-19T04:58:46.204Z,8.05
2023-01-19T05:01:13.772Z,7.97
2023-01-19T05:03:41.381Z,7.47
2023-01-19T05:06:09.187Z,7.20
2023-01-19T05:08:36.964Z,6.40
2023-01-19T05:11:05.112Z,6.50
2023-01-19T05:13:33.855Z,6.28
2023-01-19T05:16:04.752Z,6.13
2023-01-19T05:18:36.245Z,6.25
2023-01-19T05:21:04.886Z,4.90
2023-01-19T05:23:33.248Z,5.47
2023-01-19T05:28:56.767Z,5.22
2023-01-19T05:31:27.811Z,4.85
2023-01-19T05:34:01.933Z,5.03
2023-01-19T05:36:40.167Z,4.72
2023-01-19T05:39:13.135Z,4.43
2023-01-19T05:41:42.116Z,4.47
2023-01-19T05:44:16.823Z,4.63
2023-01-19T05:46:44.583Z,4.60
2023-01-19T05:49:12.981Z,4.95
2023-01-19T05:51:45.335Z,4.15
2023-01-19T05:54:15.589Z,4.85
2023-01-19T05:56:43.719Z,3.70
2023-01-19T05:59:13.586Z,3.85
2023-01-19T06:02:08.875Z,4.22
2023-01-19T06:05:56.026Z,4.55
2023-01-19T06:08:06.968Z,5.10
2023-01-19T06:10:37.923Z,5.78
2023-01-19T06:13:12.590Z,5.93
2023-01-19T06:15:40.394Z,5.45
2023-01-19T06:18:08.377Z,6.75
2023-01-19T06:20:36.645Z,6.20
2023-01-19T06:23:10.769Z,6.43
2023-01-19T06:25:39.241Z,6.95
2023-01-19T06:28:10.237Z,7.57
2023-01-19T06:31:24.627Z,7.05
2023-01-19T06:34:14.132Z,7.30
2023-01-19T06:36:41.654Z,8.70
2023-01-19T06:39:10.664Z,8.02
2023-01-19T06:41:39.097Z,8.55
2023-01-19T06:44:06.544Z,8.88
2023-01-19T06:46:36.052Z,9.27
2023-01-19T06:49:03.882Z,10.02
2023-01-19T06:51:32.763Z,10.48
2023-01-19T06:54:00.897Z,10.73
2023-01-19T06:56:28.388Z,11.35
2023-01-19T06:58:56.473Z,12.40
2023-01-19T07:01:24.087Z,13.73
2023-01-19T07:03:51.929Z,13.45
2023-01-19T07:06:19.787Z,13.48
2023-01-19T07:08:47.409Z,15.85
2023-01-19T07:11:25.618Z,14.80
2023-01-19T07:13:58.351Z,14.77
2023-01-19T07:16:26.193Z,16.08
2023-01-19T07:18:53.904Z,16.83
2023-01-19T07:21:22.638Z,17.45
2023-01-19T07:23:54.206Z,16.00
2023-01-19T07:26:24.978Z,18.75
2023-01-19T07:28:52.702Z,18.38
2023-01-19T07:31:20.732Z,20.02
2023-01-19T07:33:48.265Z,20.67
2023-01-19T07:36:15.742Z,22.33
2023-01-19T07:38:43.280Z,23.88
2023-01-19T07:41:11.206Z,24.70
2023-01-19T07:43:38.723Z,24.58
2023-01-19T07:46:08.290Z,23.58
2023-01-19T07:48:36.048Z,25.23
2023-01-19T07:51:10.990Z,24.75
2023-01-19T07:53:40.037Z,25.77
2023-01-19T07:56:08.179Z,28.35
2023-01-19T07:58:35.904Z,29.15
2023-01-19T08:01:13.149Z,30.45
2023-01-19T08:03:40.958Z,29.95
2023-01-19T08:06:22.641Z,29.95
2023-01-19T08:11:18.174Z,29.23
2023-01-19T08:13:45.719Z,32.83
2023-01-19T08:16:13.264Z,30.10
2023-01-19T08:18:40.717Z,30.58
2023-01-19T08:21:08.606Z,31.45
2023-01-19T08:23:37.124Z,32.53
2023-01-19T08:26:31.988Z,30.80
2023-01-19T08:29:04.542Z,29.85
2023-01-19T08:31:32.867Z,32.03
2023-01-19T08:34:00.437Z,31.40
2023-01-19T08:36:28.027Z,31.67
2023-01-19T08:38:55.559Z,31.30
2023-01-19T08:41:23.137Z,29.52
2023-01-19T08:43:50.636Z,32.50
2023-01-19T08:46:21.285Z,29.08
2023-01-19T08:48:49.440Z,31.13
2023-01-19T08:51:18.180Z,30.05
2023-01-19T08:53:46.188Z,27.73
2023-01-19T08:56:14.571Z,31.67
2023-01-19T08:58:46.733Z,28.90
2023-01-19T09:01:18.606Z,29.92
2023-01-19T09:03:47.097Z,32.92
2023-01-19T09:06:18.427Z,30.80
2023-01-19T09:08:49.018Z,29.90
2023-01-19T09:11:17.497Z,30.58
2023-01-19T09:13:45.121Z,30.58
2023-01-19T09:16:15.201Z,26.02
2023-01-19T09:18:43.142Z,26.20
2023-01-19T09:21:10.720Z,25.40
2023-01-19T09:23:38.372Z,24.33
2023-01-19T09:26:06.806Z,21.48
2023-01-19T09:28:35.421Z,22.98
2023-01-19T09:31:08.613Z,22.80
2023-01-19T09:33:36.254Z,23.13
2023-01-19T09:36:04.040Z,25.10
2023-01-19T09:38:32.904Z,25.48
2023-01-19T09:41:01.341Z,29.58
2023-01-19T09:43:35.229Z,31.55
2023-01-19T09:46:15.330Z,32.63
2023-01-19T09:48:49.971Z,31.85
2023-01-19T09:51:23.616Z,32.50
2023-01-19T09:54:05.133Z,33.83
2023-01-19T09:56:33.580Z,35.28
2023-01-19T09:59:15.169Z,35.75
2023-01-19T10:02:31.328Z,37.45
2023-01-19T10:05:40.595Z,33.97
2023-01-19T10:08:31.875Z,34.17
2023-01-19T10:10:59.939Z,32.05
2023-01-19T10:13:48.356Z,32.03
2023-01-19T10:16:56.750Z,33.33
2023-01-19T10:19:32.770Z,34.63
2023-01-19T10:22:35.844Z,37.45
2023-01-19T10:25:13.415Z,37.42
2023-01-19T10:27:41.644Z,37.25
2023-01-19T10:30:18.822Z,38.30
2023-01-19T10:32:46.902Z,38.90
2023-01-19T10:35:23.566Z,40.25
2023-01-19T10:37:58.694Z,40.05
2023-01-19T10:40:47.918Z,38.85
2023-01-19T10:43:44.224Z,40.53
2023-01-19T10:46:23.022Z,39.83
2023-01-19T10:48:54.347Z,39.95
2023-01-19T10:51:22.545Z,37.83
2023-01-19T10:54:04.890Z,36.20
2023-01-19T10:56:38.486Z,35.92
2023-01-19T10:59:27.341Z,34.92
2023-01-19T11:02:12.470Z,33.47
2023-01-19T11:04:42.036Z,33.03
2023-01-19T11:07:27.345Z,31.45
2023-01-19T11:10:22.542Z,33.20
2023-01-19T11:12:58.425Z,33.95
2023-01-19T11:15:34.823Z,31.90
2023-01-19T11:18:05.759Z,32.03
2023-01-19T11:20:49.642Z,32.65
2023-01-19T11:23:26.422Z,30.88
2023-01-19T11:26:01.780Z,29.33
2023-01-19T11:28:44.193Z,32.83
2023-01-19T11:31:15.505Z,27.80
2023-01-19T11:33:58.657Z,28.65
2023-01-19T11:36:35.516Z,26.25
2023-01-19T11:39:28.230Z,26.73
2023-01-19T11:42:02.179Z,23.13
2023-01-19T11:44:39.174Z,25.88
2023-01-19T11:47:18.654Z,23.88
2023-01-19T11:50:02.770Z,24.17
2023-01-19T11:52:46.438Z,22.25
2023-01-19T11:56:04.718Z,21.23
2023-01-19T11:58:42.081Z,20.77
2023-01-19T12:01:24.861Z,20.73
2023-01-19T12:04:10.725Z,18.05
2023-01-19T12:06:48.224Z,17.40
2023-01-19T12:09:49.867Z,19.42
2023-01-19T12:12:38.240Z,18.27
2023-01-19T12:15:30.456Z,17.25
2023-01-19T12:18:02.492Z,16.80
2023-01-19T12:20:48.055Z,16.98
2023-01-19T12:24:01.441Z,15.93
2023-01-19T12:26:43.625Z,16.05
2023-01-19T12:29:15.992Z,15.90
2023-01-19T12:31:44.124Z,17.10
2023-01-19T12:34:31.414Z,15.38
2023-01-19T12:37:06.013Z,15.40
2023-01-19T12:39:35.426Z,14.63
2023-01-19T12:42:14.449Z,16.02
2023-01-19T12:44:44.783Z,15.90
2023-01-19T12:47:15.119Z,15.38
2023-01-19T12:49:55.163Z,15.68
2023-01-19T12:52:29.264Z,14.05
2023-01-19T12:55:01.120Z,14.45
2023-01-19T12:57:49.066Z,14.82
2023-01-19T13:00:22.413Z,15.15
2023-01-19T13:02:55.628Z,15.18
2023-01-19T13:05:32.637Z,14.70
2023-01-19T13:08:06.766Z,13.75
2023-01-19T13:11:05.807Z,14.07
2023-01-19T13:13:45.150Z,12.48
2023-01-19T13:16:18.954Z,12.27
2023-01-19T13:18:47.942Z,11.57
2023-01-19T13:21:39.767Z,12.30
2023-01-19T13:26:49.176Z,11.82
2023-01-19T13:29:36.430Z,12.00
2023-01-19T13:32:18.930Z,11.23
2023-01-19T13:34:54.725Z,12.18
2023-01-19T13:37:28.397Z,12.13
2023-01-19T13:39:57.710Z,12.25
2023-01-19T13:42:39.239Z,12.05
2023-01-19T13:45:25.226Z,11.93
2023-01-19T13:47:58.071Z,11.82
2023-01-19T13:53:01.479Z,12.52
2023-01-19T13:55:31.829Z,11.43
2023-01-19T13:57:59.462Z,12.00
2023-01-19T14:00:30.839Z,12.15
2023-01-19T14:03:21.272Z,12.32
2023-01-19T14:05:54.478Z,11.65
2023-01-19T14:08:25.410Z,11.95
2023-01-19T14:11:02.393Z,13.80
2023-01-19T14:13:40.135Z,12.10
2023-01-19T14:16:17.530Z,12.52
2023-01-19T14:18:45.209Z,13.63
2023-01-19T14:21:15.231Z,14.32
2023-01-19T14:23:53.157Z,13.05
2023-01-19T14:26:50.008Z,13.75
2023-01-19T14:29:35.622Z,14.23
2023-01-19T14:32:21.639Z,14.30
2023-01-19T14:34:54.010Z,13.60
2023-01-19T14:37:29.041Z,15.23
2023-01-19T14:40:04.813Z,14.77
2023-01-19T14:42:38.463Z,14.32
2023-01-19T14:45:21.110Z,15.10
2023-01-19T14:48:04.791Z,15.40
2023-01-19T14:50:42.822Z,14.70
2023-01-19T14:53:25.606Z,16.77
2023-01-19T14:55:59.283Z,17.85
2023-01-19T14:58:31.262Z,17.33
2023-01-19T15:00:59.366Z,18.08
2023-01-19T15:03:44.756Z,19.50
2023-01-19T15:06:17.201Z,18.55
2023-01-19T15:08:46.418Z,19.58
2023-01-19T15:11:33.939Z,19.48
2023-01-19T15:14:02.568Z,20.02
2023-01-19T15:16:34.337Z,20.27
2023-01-19T15:19:02.124Z,20.45
2023-01-19T15:21:29.852Z,20.92
2023-01-19T15:23:58.556Z,21.85
2023-01-19T15:26:27.609Z,21.42
2023-01-19T15:28:56.689Z,21.27
2023-01-19T15:31:26.708Z,21.58
2023-01-19T15:33:54.851Z,22.48
2023-01-19T15:36:24.346Z,21.70
2023-01-19T15:38:51.976Z,21.35
2023-01-19T15:41:26.118Z,21.75
2023-01-19T15:43:54.133Z,22.85
2023-01-19T15:46:23.441Z,21.80
2023-01-19T15:48:52.467Z,23.70
2023-01-19T15:51:25.895Z,20.90
2023-01-19T15:53:55.252Z,22.67
2023-01-19T15:56:29.131Z,21.65
2023-01-19T16:01:32.310Z,21.02
2023-01-19T16:04:04.027Z,20.85
2023-01-19T16:06:32.966Z,21.90
2023-01-19T16:09:01.548Z,22.73
2023-01-19T16:11:35.172Z,22.42
2023-01-19T16:14:02.805Z,22.85
2023-01-19T16:16:30.434Z,20.33
2023-01-19T16:18:59.049Z,21.52
2023-01-19T16:21:27.088Z,22.00
2023-01-19T16:23:55.096Z,22.25
2023-01-19T16:26:34.457Z,22.10
2023-01-19T16:29:11.010Z,21.35
2023-01-19T16:31:42.476Z,22.83
2023-01-19T16:34:10.472Z,22.00
2023-01-19T16:36:41.672Z,20.85
2023-01-19T16:39:14.701Z,22.17
2023-01-19T16:41:44.120Z,22.67
2023-01-19T16:44:13.943Z,23.40
2023-01-19T16:46:45.225Z,22.90
2023-01-19T16:49:20.105Z,22.55
2023-01-19T16:51:49.099Z,23.20
2023-01-19T16:54:25.635Z,24.15
2023-01-19T16:56:55.636Z,23.50
2023-01-19T16:59:24.528Z,23.20
2023-01-19T17:01:52.178Z,22.40
2023-01-19T17:04:22.009Z,22.83
2023-01-19T17:06:52.758Z,24.13
2023-01-19T17:09:20.296Z,22.57
2023-01-19T17:11:48.074Z,23.33
2023-01-19T17:14:21.802Z,24.17
2023-01-19T17:16:50.249Z,24.23
2023-01-19T17:19:20.470Z,22.73
2023-01-19T17:21:49.767Z,23.02
2023-01-19T17:24:18.017Z,24.45
2023-01-19T17:26:48.546Z,23.55
2023-01-19T17:29:17.017Z,22.90
2023-01-19T17:31:45.829Z,22.55
2023-01-19T17:34:13.446Z,24.25
2023-01-19T17:36:41.085Z,23.80
2023-01-19T17:39:14.648Z,24.27
2023-01-19T17:41:42.337Z,25.30
2023-01-19T17:44:10.725Z,24.25
2023-01-19T17:46:39.505Z,26.38
2023-01-19T17:49:10.844Z,25.02
2023-01-19T17:51:38.489Z,24.88
2023-01-19T17:54:06.100Z,27.05
2023-01-19T17:56:37.444Z,26.25
2023-01-19T17:59:07.755Z,26.35
2023-01-19T18:01:39.844Z,28.65
2023-01-19T18:04:09.062Z,26.83
2023-01-19T18:06:38.493Z,28.67
2023-01-19T18:09:07.408Z,33.00
2023-01-19T18:11:35.735Z,28.75
2023-01-19T18:14:03.504Z,29.25
2023-01-19T18:16:32.244Z,27.58
2023-01-19T18:18:59.826Z,28.70
2023-01-19T18:21:28.209Z,27.38
2023-01-19T18:24:05.370Z,27.88
2023-01-19T18:26:34.994Z,28.15
2023-01-19T18:29:02.564Z,29.63
2023-01-19T18:31:30.379Z,28.73
2023-01-19T18:33:58.115Z,27.05
2023-01-19T18:36:26.002Z,26.65
2023-01-19T18:38:53.756Z,27.92
2023-01-19T18:41:21.995Z,27.25
2023-01-19T18:43:50.068Z,27.27
2023-01-19T18:46:18.662Z,29.60
2023-01-19T18:48:46.760Z,29.40
2023-01-19T18:51:16.805Z,29.65
2023-01-19T18:53:45.074Z,28.50
2023-01-19T18:56:15.351Z,29.23
2023-01-19T18:58:44.143Z,29.65
2023-01-19T19:01:25.199Z,31.25
2023-01-19T19:03:55.059Z,31.50
2023-01-19T19:06:27.515Z,32.22
2023-01-19T19:09:00.483Z,33.05
2023-01-19T19:11:28.416Z,38.83
2023-01-19T19:14:01.218Z,36.63
2023-01-19T19:16:36.619Z,31.13
2023-01-19T19:19:08.521Z,31.45
2023-01-19T19:21:36.202Z,32.00
2023-01-19T19:24:04.256Z,32.72
2023-01-19T19:26:31.776Z,31.10
2023-01-19T19:29:01.175Z,32.65
2023-01-19T19:31:30.255Z,32.40
2023-01-19T19:33:59.242Z,33.42
2023-01-19T19:36:28.621Z,32.95
2023-01-19T19:38:56.239Z,33.30
2023-01-19T19:41:27.076Z,33.70
2023-01-19T19:43:56.186Z,36.70
2023-01-19T19:46:24.886Z,34.10
2023-01-19T19:48:54.077Z,35.22
2023-01-19T19:51:26.898Z,33.63
2023-01-19T19:53:58.694Z,32.95
2023-01-19T19:56:29.730Z,37.83
2023-01-19T19:58:59.386Z,35.15
2023-01-19T20:01:32.938Z,36.92
2023-01-19T20:04:10.769Z,39.90
2023-01-19T20:06:44.743Z,36.40
2023-01-19T20:09:14.213Z,37.08
2023-01-19T20:11:44.405Z,39.03
2023-01-19T20:14:14.152Z,37.72
2023-01-19T20:16:43.061Z,38.10
2023-01-19T20:19:12.897Z,37.63
2023-01-19T20:21:42.430Z,38.67
2023-01-19T20:24:18.244Z,35.75
2023-01-19T20:26:56.848Z,34.58
2023-01-19T20:29:24.806Z,35.55
2023-01-19T20:31:57.169Z,38.40
2023-01-19T20:34:33.216Z,36.28
2023-01-19T20:37:02.595Z,36.42
2023-01-19T20:39:33.211Z,36.70
2023-01-19T20:42:02.155Z,36.47
2023-01-19T20:44:31.761Z,41.17
2023-01-19T20:46:59.297Z,36.90
2023-01-19T20:49:26.779Z,36.38
2023-01-19T20:51:54.549Z,37.83
2023-01-19T20:54:27.351Z,37.70
2023-01-19T20:56:55.192Z,36.03
2023-01-19T20:59:23.560Z,38.80
2023-01-19T21:01:51.468Z,37.88
2023-01-19T21:04:19.214Z,36.35
2023-01-19T21:06:46.825Z,38.35
2023-01-19T21:09:14.444Z,37.50
2023-01-19T21:11:41.980Z,36.05
2023-01-19T21:14:09.673Z,37.25
2023-01-19T21:16:37.939Z,35.08
2023-01-19T21:19:05.815Z,42.70
2023-01-19T21:21:33.951Z,42.50
2023-01-19T21:24:04.003Z,41.00
2023-01-19T21:26:33.367Z,38.28
2023-01-19T21:29:03.579Z,41.65
2023-01-19T21:31:32.495Z,37.55
2023-01-19T21:34:00.375Z,37.50
2023-01-19T21:36:27.961Z,37.83
2023-01-19T21:39:00.488Z,40.95
2023-01-19T21:41:30.274Z,38.05
2023-01-19T21:44:00.891Z,37.55
2023-01-19T21:46:30.782Z,37.05
2023-01-19T21:49:05.362Z,36.25
2023-01-19T21:51:36.601Z,36.55
2023-01-19T21:54:06.651Z,38.20
2023-01-19T21:56:35.801Z,37.42
2023-01-19T21:59:04.278Z,37.60
2023-01-19T22:01:33.736Z,38.25
2023-01-19T22:04:01.418Z,36.00
2023-01-19T22:06:29.439Z,37.97
2023-01-19T22:08:58.340Z,37.85
2023-01-19T22:11:27.323Z,36.10
2023-01-19T22:13:56.609Z,39.05
2023-01-19T22:16:24.269Z,35.60
2023-01-19T22:18:56.669Z,40.40
2023-01-19T22:21:34.073Z,39.55
2023-01-19T22:24:05.113Z,38.70
2023-01-19T22:26:34.596Z,39.90
2023-01-19T22:29:04.421Z,39.13
2023-01-19T22:31:32.386Z,39.17
2023-01-19T22:34:00.086Z,39.53
2023-01-19T22:36:31.435Z,41.58
2023-01-19T22:39:10.275Z,42.42
2023-01-19T22:41:47.178Z,41.13
2023-01-19T22:44:20.156Z,40.92
2023-01-19T22:46:50.046Z,43.55
2023-01-19T22:49:18.833Z,40.83
2023-01-19T22:51:46.583Z,43.00
2023-01-19T22:54:14.316Z,42.92
2023-01-19T22:56:42.239Z,40.60
2023-01-19T22:59:09.977Z,42.70
2023-01-19T23:01:42.586Z,42.08
2023-01-19T23:04:16.114Z,43.25
2023-01-19T23:06:46.987Z,41.33
2023-01-19T23:09:15.509Z,41.83
2023-01-19T23:11:50.810Z,43.67
2023-01-19T23:14:22.054Z,43.75
2023-01-19T23:16:50.906Z,43.40
2023-01-19T23:19:19.241Z,46.17
2023-01-19T23:21:49.977Z,44.95
2023-01-19T23:24:17.628Z,44.33
2023-01-19T23:26:45.123Z,44.67
2023-01-19T23:29:15.442Z,43.35
2023-01-19T23:31:47.456Z,45.00
2023-01-19T23:34:15.995Z,42.45
2023-01-19T23:36:44.378Z,40.88
2023-01-19T23:39:18.002Z,42.45
2023-01-19T23:41:46.476Z,42.75
2023-01-19T23:44:14.702Z,40.85
2023-01-19T23:46:43.843Z,40.63
2023-01-19T23:49:12.777Z,42.17
2023-01-19T23:51:41.321Z,43.35
2023-01-19T23:54:08.874Z,41.17
2023-01-19T23:56:38.734Z,44.55
2023-01-19T23:59:11.556Z,44.17
